Senhor do Bonfim, Brazil
Current Conditions -  °F | °C
As of 9:00 PM on Monday 24 Nov 2014 (Local Time) from SBPL Reporting Station
Clear Clear  
Wind Chill: 86°   Ceiling: Unl
Heat Index: 89°   Visibility: 6mi
Dew Point: 68°   Wind: 5mph
Humidity: 55%   Direction: 170°S
Pressure: 29.91"   Gusts: NA
Location:  10.45°S, 40.19°W
Report Text: SBPL 250000Z 17004KT CAVOK 30/20 Q1013
Loading
Personal Weather Stations






























Interactive Weather Map New forecast layout! Learn more

10-Day Weather Forecast

Advertisements
Track Severe Weather on mobile